Main page
Satellite images 10-day forecastsClimateMarine weather Cyclones Lightning AirportsFAQ Newsletter About
Weather : Europe Africa North America South America Asia Australia-Oceania Others
Languages Contact

Lisbon, Portugal

Lisbon Portela Airport

latitude: 38-46N, longitude: 009-08W, elevation: 114 m


METAR: LPPT 061930Z 06005KT CAVOK 17/01 Q1026
TAF: LPPT 061700Z 0618/0724 VRB03KT CAVOK BECMG 0619/0622 06008KT BECMG 0713/0715 VRB03KT BECMG 0716/0719 33008KT

Time: 20:01 (20:01 UTC)

Current weather observation

The report was made 31 minutes ago, at 19:30 UTC
Wind 5 kt from the East/Northeast
Temperature 17°C
Humidity 34%
Pressure 1026 hPa
Visibility 10 km or more
no clouds below 1500 m and no cumulonimbus

Change units

Forecast

The report was made 3 hours and 1 minutes ago, at 17:00 UTC
Forecast valid from 06 at 18 UTC to 07 at 24 UTC
Wind 3 kt from variable directions
Visibility 10 km or more
no clouds below 1500 m and no cumulonimbus
Becoming
from 06 at 19 UTC to 06 at 22 UTC
Wind 8 kt from the East/Northeast
Becoming
from 07 at 13 UTC to 07 at 15 UTC
Wind 3 kt from variable directions
Becoming
from 07 at 16 UTC to 07 at 19 UTC
Wind 8 kt from the North/Northwest
The information on this site is subject to a disclaimer
Weather : Europe Africa North America South America Asia Australia-Oceania Others
Satellite images 10-day forecastsClimateMarine weather Cyclones Lightning AirportsFAQ Languages Contact Newsletter About